createdAt,value
2022-10-14T00:01:27.191Z,101812.40
2022-10-14T00:04:06.374Z,101812.86
2022-10-14T00:06:34.714Z,101814.91
2022-10-14T00:09:06.362Z,101807.05
2022-10-14T00:11:36.566Z,101803.10
2022-10-14T00:14:09.207Z,101803.23
2022-10-14T00:16:40.367Z,101798.09
2022-10-14T00:19:12.750Z,101796.20
2022-10-14T00:21:43.723Z,101791.18
2022-10-14T00:24:14.391Z,101792.52
2022-10-14T00:26:42.917Z,101793.00
2022-10-14T00:29:14.805Z,101792.49
2022-10-14T00:31:42.831Z,101792.81
2022-10-14T00:34:13.188Z,101790.61
2022-10-14T00:36:42.026Z,101792.46
2022-10-14T00:39:11.639Z,101785.77
2022-10-14T00:41:41.353Z,101791.63
2022-10-14T00:44:15.477Z,101788.77
2022-10-14T00:46:46.218Z,101789.04
2022-10-14T00:49:31.745Z,101787.74
2022-10-14T00:52:08.055Z,101786.25
2022-10-14T00:54:44.273Z,101787.31
2022-10-14T00:57:13.186Z,101780.17
2022-10-14T00:59:41.913Z,101778.73
2022-10-14T01:02:11.517Z,101775.80
2022-10-14T01:04:42.922Z,101775.02
2022-10-14T01:07:14.025Z,101771.33
2022-10-14T01:09:54.965Z,101774.64
2022-10-14T01:12:37.670Z,101773.14
2022-10-14T01:15:11.827Z,101769.11
2022-10-14T01:18:08.705Z,101768.73
2022-10-14T01:20:56.106Z,101766.70
2022-10-14T01:24:12.717Z,101763.86
2022-10-14T01:26:56.992Z,101749.66
2022-10-14T01:29:40.252Z,101761.73
2022-10-14T01:32:16.819Z,101756.36
2022-10-14T01:34:56.739Z,101757.99
2022-10-14T01:37:29.280Z,101756.16
2022-10-14T01:40:03.209Z,101753.65
2022-10-14T01:42:34.969Z,101752.86
2022-10-14T01:45:23.725Z,101751.19
2022-10-14T01:47:54.888Z,101746.28
2022-10-14T01:50:25.787Z,101745.14
2022-10-14T01:53:04.242Z,101743.08
2022-10-14T01:55:38.199Z,101740.54
2022-10-14T01:58:07.908Z,101738.33
2022-10-14T02:00:36.644Z,101736.52
2022-10-14T02:03:05.068Z,101734.34
2022-10-14T02:05:41.541Z,101735.70
2022-10-14T02:08:42.108Z,101736.24
2022-10-14T02:11:18.013Z,101731.88
2022-10-14T02:14:17.805Z,101732.39
2022-10-14T02:17:01.828Z,101732.14
2022-10-14T02:19:35.244Z,101729.09
2022-10-14T02:22:31.870Z,101716.35
2022-10-14T02:25:33.899Z,101724.40
2022-10-14T02:28:06.131Z,101716.75
2022-10-14T02:30:44.096Z,101719.10
2022-10-14T02:33:13.307Z,101714.61
2022-10-14T02:35:43.964Z,101716.27
2022-10-14T02:38:12.236Z,101712.96
2022-10-14T02:40:45.214Z,101714.27
2022-10-14T02:43:13.651Z,101711.89
2022-10-14T02:45:43.893Z,101708.41
2022-10-14T02:48:12.605Z,101707.08
2022-10-14T02:50:42.408Z,101705.27
2022-10-14T02:53:14.738Z,101706.69
2022-10-14T02:55:45.275Z,101705.80
2022-10-14T02:58:13.691Z,101707.52
2022-10-14T03:00:42.051Z,101693.04
2022-10-14T03:03:10.436Z,101701.11
2022-10-14T03:05:43.031Z,101702.30
2022-10-14T03:08:14.175Z,101704.52
2022-10-14T03:10:45.710Z,101699.97
2022-10-14T03:13:14.702Z,101699.42
2022-10-14T03:15:44.549Z,101698.29
2022-10-14T03:18:12.765Z,101700.63
2022-10-14T03:20:44.983Z,101702.48
2022-10-14T03:23:14.741Z,101705.13
2022-10-14T03:25:45.360Z,101703.27
2022-10-14T03:28:19.760Z,101698.90
2022-10-14T03:31:03.408Z,101695.73
2022-10-14T03:33:55.426Z,101695.36
2022-10-14T03:36:24.352Z,101694.64
2022-10-14T03:38:54.614Z,101692.64
2022-10-14T03:41:36.316Z,101687.61
2022-10-14T03:44:06.528Z,101689.86
2022-10-14T03:46:35.640Z,101689.16
2022-10-14T03:49:04.161Z,101684.86
2022-10-14T03:51:33.236Z,101681.70
2022-10-14T03:54:13.377Z,101678.21
2022-10-14T03:56:41.557Z,101672.84
2022-10-14T03:59:10.236Z,101671.63
2022-10-14T04:01:41.299Z,101671.04
2022-10-14T04:04:16.808Z,101667.61
2022-10-14T04:06:46.195Z,101674.12
2022-10-14T04:09:14.644Z,101674.52
2022-10-14T04:11:42.990Z,101666.21
2022-10-14T04:14:16.307Z,101669.20
2022-10-14T04:16:50.062Z,101668.71
2022-10-14T04:19:19.414Z,101661.70
2022-10-14T04:21:47.584Z,101664.33
2022-10-14T04:24:18.685Z,101648.02
2022-10-14T04:26:54.065Z,101654.39
2022-10-14T04:29:28.202Z,101657.73
2022-10-14T04:32:04.532Z,101657.16
2022-10-14T04:34:34.084Z,101655.11
2022-10-14T04:37:02.259Z,101652.48
2022-10-14T04:40:06.073Z,101649.11
2022-10-14T04:42:34.475Z,101645.70
2022-10-14T04:45:04.809Z,101642.77
2022-10-14T04:47:48.584Z,101643.20
2022-10-14T04:50:19.096Z,101647.39
2022-10-14T04:53:11.927Z,101643.11
2022-10-14T04:55:49.677Z,101642.61
2022-10-14T04:58:18.572Z,101642.77
2022-10-14T05:00:48.072Z,101637.66
2022-10-14T05:03:35.363Z,101636.73
2022-10-14T05:06:03.643Z,101634.17
2022-10-14T05:08:31.919Z,101638.39
2022-10-14T05:11:02.904Z,101640.44
2022-10-14T05:13:42.728Z,101637.46
2022-10-14T05:16:10.887Z,101634.39
2022-10-14T05:18:39.800Z,101635.70
2022-10-14T05:21:12.216Z,101634.55
2022-10-14T05:23:59.679Z,101628.48
2022-10-14T05:26:29.264Z,101629.55
2022-10-14T05:28:58.062Z,101629.69
2022-10-14T05:31:26.187Z,101631.05
2022-10-14T05:34:05.608Z,101629.55
2022-10-14T05:36:33.971Z,101634.80
2022-10-14T05:39:03.255Z,101634.20
2022-10-14T05:41:34.779Z,101637.07
2022-10-14T05:44:03.891Z,101638.06
2022-10-14T05:46:32.303Z,101641.61
2022-10-14T05:49:02.639Z,101640.11
2022-10-14T05:51:30.799Z,101639.89
2022-10-14T05:54:04.316Z,101639.99
2022-10-14T05:56:32.510Z,101640.80
2022-10-14T05:59:00.623Z,101646.20
2022-10-14T06:01:29.139Z,101646.39
2022-10-14T06:03:57.334Z,101643.30
2022-10-14T06:06:28.940Z,101642.30
2022-10-14T06:08:57.459Z,101640.52
2022-10-14T06:11:25.549Z,101639.73
2022-10-14T06:13:53.951Z,101640.23
2022-10-14T06:16:22.083Z,101635.48
2022-10-14T06:18:54.207Z,101631.86
2022-10-14T06:21:22.851Z,101632.69
2022-10-14T06:23:51.011Z,101631.85
2022-10-14T06:26:19.103Z,101634.88
2022-10-14T06:28:47.185Z,101637.27
2022-10-14T06:31:15.527Z,101636.03
2022-10-14T06:33:44.546Z,101636.54
2022-10-14T06:36:13.051Z,101634.48
2022-10-14T06:38:41.166Z,101633.64
2022-10-14T06:41:10.343Z,101633.11
2022-10-14T06:43:38.635Z,101634.67
2022-10-14T06:46:06.870Z,101630.94
2022-10-14T06:48:35.322Z,101618.39
2022-10-14T06:51:03.762Z,101632.60
2022-10-14T06:53:31.963Z,101635.00
2022-10-14T06:56:06.106Z,101636.41
2022-10-14T06:58:34.150Z,101631.75
2022-10-14T07:01:04.546Z,101634.05
2022-10-14T07:03:41.771Z,101629.48
2022-10-14T07:06:10.431Z,101628.89
2022-10-14T07:08:38.786Z,101627.68
2022-10-14T07:11:07.372Z,101623.55
2022-10-14T07:13:36.017Z,101622.13
2022-10-14T07:16:04.960Z,101627.42
2022-10-14T07:18:33.295Z,101640.25
2022-10-14T07:21:03.594Z,101649.69
2022-10-14T07:23:32.098Z,101634.09
2022-10-14T07:26:01.132Z,101630.36
2022-10-14T07:28:30.244Z,101640.70
2022-10-14T07:31:03.471Z,101646.04
2022-10-14T07:33:32.472Z,101641.65
2022-10-14T07:36:03.486Z,101626.21
2022-10-14T07:38:31.831Z,101631.94
2022-10-14T07:41:06.848Z,101647.77
2022-10-14T07:43:36.142Z,101633.11
2022-10-14T07:46:08.246Z,101646.85
2022-10-14T07:48:52.598Z,101640.52
2022-10-14T07:51:25.741Z,101642.88
2022-10-14T07:53:55.799Z,101651.86
2022-10-14T07:56:24.834Z,101645.85
2022-10-14T07:58:53.469Z,101651.41
2022-10-14T08:01:21.832Z,101654.81
2022-10-14T08:03:50.614Z,101658.04
2022-10-14T08:06:18.980Z,101656.88
2022-10-14T08:08:47.362Z,101657.24
2022-10-14T08:11:21.151Z,101647.67
2022-10-14T08:13:50.253Z,101651.46
2022-10-14T08:16:22.015Z,101657.40
2022-10-14T08:18:51.231Z,101658.32
2022-10-14T08:21:21.750Z,101657.98
2022-10-14T08:23:50.051Z,101660.48
2022-10-14T08:26:26.064Z,101662.35
2022-10-14T08:28:55.606Z,101668.47
2022-10-14T08:31:24.237Z,101664.84
2022-10-14T08:33:53.127Z,101660.38
2022-10-14T08:36:21.988Z,101655.80
2022-10-14T08:38:52.691Z,101649.28
2022-10-14T08:41:50.283Z,101638.63
2022-10-14T08:44:23.399Z,101632.40
2022-10-14T08:46:58.993Z,101627.13
2022-10-14T08:49:55.464Z,101625.63
2022-10-14T08:52:48.760Z,101624.66
2022-10-14T08:55:23.901Z,101623.36
2022-10-14T08:57:59.549Z,101616.67
2022-10-14T09:00:31.331Z,101616.66
2022-10-14T09:03:02.734Z,101619.89
2022-10-14T09:05:31.376Z,101619.64
2022-10-14T09:08:00.959Z,101613.47
2022-10-14T09:10:39.881Z,101615.15
2022-10-14T09:13:29.004Z,101612.91
2022-10-14T09:16:04.014Z,101608.11
2022-10-14T09:18:45.831Z,101606.63
2022-10-14T09:21:51.694Z,101610.61
2022-10-14T09:24:22.632Z,101610.83
2022-10-14T09:26:58.972Z,101610.51
2022-10-14T09:29:57.367Z,101604.18
2022-10-14T09:32:41.010Z,101600.35
2022-10-14T09:35:25.006Z,101600.27
2022-10-14T09:37:53.501Z,101590.80
2022-10-14T09:40:41.136Z,101599.38
2022-10-14T09:43:09.323Z,101592.68
2022-10-14T09:46:00.813Z,101591.92
2022-10-14T09:48:28.971Z,101593.55
2022-10-14T09:50:59.115Z,101591.19
2022-10-14T09:53:47.228Z,101588.97
2022-10-14T09:56:18.023Z,101592.98
2022-10-14T09:58:55.532Z,101590.17
2022-10-14T10:01:30.035Z,101594.60
2022-10-14T10:04:37.115Z,101594.77
2022-10-14T10:07:21.133Z,101589.34
2022-10-14T10:10:01.391Z,101587.02
2022-10-14T10:12:35.765Z,101581.71
2022-10-14T10:15:06.987Z,101576.31
2022-10-14T10:17:40.951Z,101572.84
2022-10-14T10:20:33.834Z,101574.84
2022-10-14T10:23:25.527Z,101572.95
2022-10-14T10:25:54.016Z,101570.20
2022-10-14T10:28:32.026Z,101564.86
2022-10-14T10:31:09.549Z,101527.83
2022-10-14T10:34:19.565Z,101560.20
2022-10-14T10:37:08.622Z,101561.83
2022-10-14T10:39:47.865Z,101567.71
2022-10-14T10:42:28.245Z,101562.55
2022-10-14T10:45:07.146Z,101555.72
2022-10-14T10:48:08.893Z,101557.29
2022-10-14T10:51:00.497Z,101557.09
2022-10-14T10:53:50.658Z,101554.15
2022-10-14T10:56:35.197Z,101554.10
2022-10-14T10:59:21.503Z,101550.38
2022-10-14T11:02:23.555Z,101550.05
2022-10-14T11:05:01.037Z,101536.84
2022-10-14T11:08:13.106Z,101544.68
2022-10-14T11:11:12.653Z,101540.77
2022-10-14T11:13:52.061Z,101537.77
2022-10-14T11:16:42.859Z,101537.73
2022-10-14T11:19:24.452Z,101526.46
2022-10-14T11:22:10.709Z,101536.45
2022-10-14T11:24:59.020Z,101533.02
2022-10-14T11:27:37.413Z,101538.46
2022-10-14T11:30:23.865Z,101534.45
2022-10-14T11:33:10.616Z,101533.50
2022-10-14T11:36:09.197Z,101532.44
2022-10-14T11:39:08.604Z,101526.16
2022-10-14T11:41:39.854Z,101524.87
2022-10-14T11:44:14.884Z,101524.98
2022-10-14T11:46:48.180Z,101524.23
2022-10-14T11:49:25.204Z,101527.48
2022-10-14T11:51:57.452Z,101523.33
2022-10-14T11:54:38.472Z,101522.86
2022-10-14T11:57:06.504Z,101520.96
2022-10-14T12:00:16.677Z,101520.86
2022-10-14T12:03:09.836Z,101514.54
2022-10-14T12:05:51.511Z,101514.92
2022-10-14T12:08:53.560Z,101511.31
2022-10-14T12:11:46.716Z,101509.86
2022-10-14T12:14:32.681Z,101506.52
2022-10-14T12:17:05.821Z,101509.30
2022-10-14T12:19:34.081Z,101494.91
2022-10-14T12:22:17.029Z,101510.16
2022-10-14T12:24:54.676Z,101511.27
2022-10-14T12:27:27.123Z,101509.63
2022-10-14T12:29:58.519Z,101508.05
2022-10-14T12:32:28.258Z,101507.46
2022-10-14T12:35:01.750Z,101500.38
2022-10-14T12:37:38.122Z,101501.85
2022-10-14T12:40:15.242Z,101497.54
2022-10-14T12:42:44.493Z,101498.09
2022-10-14T12:45:17.706Z,101493.80
2022-10-14T12:47:46.359Z,101492.15
2022-10-14T12:50:18.781Z,101490.89
2022-10-14T12:52:57.196Z,101487.63
2022-10-14T12:55:28.882Z,101484.51
2022-10-14T12:58:05.091Z,101487.01
2022-10-14T13:00:39.952Z,101486.77
2022-10-14T13:03:22.327Z,101486.55
2022-10-14T13:05:53.999Z,101483.44
2022-10-14T13:08:25.718Z,101480.94
2022-10-14T13:10:59.974Z,101479.83
2022-10-14T13:13:41.937Z,101475.65
2022-10-14T13:16:33.896Z,101475.25
2022-10-14T13:19:04.946Z,101469.52
2022-10-14T13:21:36.412Z,101468.95
2022-10-14T13:24:31.051Z,101471.48
2022-10-14T13:27:32.722Z,101472.33
2022-10-14T13:30:07.863Z,101475.94
2022-10-14T13:33:00.094Z,101474.07
2022-10-14T13:35:47.479Z,101471.52
2022-10-14T13:38:18.851Z,101468.70
2022-10-14T13:40:56.591Z,101468.15
2022-10-14T13:43:42.888Z,101467.02
2022-10-14T13:46:16.701Z,101468.83
2022-10-14T13:48:46.689Z,101470.27
2022-10-14T13:51:24.405Z,101468.86
2022-10-14T13:54:20.160Z,101469.37
2022-10-14T14:03:01.022Z,101458.33
2022-10-14T14:05:36.500Z,101455.48
2022-10-14T14:08:35.354Z,101459.79
2022-10-14T14:11:17.990Z,101457.96
2022-10-14T14:13:58.959Z,101459.66
2022-10-14T14:16:40.377Z,101458.14
2022-10-14T14:19:24.702Z,101461.48
2022-10-14T14:22:21.506Z,101457.46
2022-10-14T14:24:50.450Z,101457.50
2022-10-14T14:27:26.707Z,101460.44
2022-10-14T14:29:55.343Z,101461.34
2022-10-14T14:32:31.050Z,101457.67
2022-10-14T14:35:00.850Z,101456.59
2022-10-14T14:40:28.830Z,101458.25
2022-10-14T14:43:03.232Z,101457.02
2022-10-14T14:45:44.054Z,101456.31
2022-10-14T14:48:15.284Z,101456.66
2022-10-14T14:50:45.068Z,101456.67
2022-10-14T14:53:29.959Z,101456.23
2022-10-14T14:56:04.668Z,101455.96
2022-10-14T14:58:50.866Z,101455.55
2022-10-14T15:01:28.138Z,101454.81
2022-10-14T15:04:13.435Z,101442.01
2022-10-14T15:06:59.908Z,101458.46
2022-10-14T15:09:36.958Z,101458.25
2022-10-14T15:12:12.463Z,101458.14
2022-10-14T15:14:47.956Z,101452.00
2022-10-14T15:17:35.144Z,101455.56
2022-10-14T15:20:03.944Z,101455.70
2022-10-14T15:22:37.723Z,101445.45
2022-10-14T15:25:11.329Z,101453.08
2022-10-14T15:27:45.780Z,101455.30
2022-10-14T15:30:36.930Z,101454.73
2022-10-14T15:33:26.481Z,101452.02
2022-10-14T15:35:57.953Z,101452.51
2022-10-14T15:38:27.404Z,101454.85
2022-10-14T15:40:56.245Z,101455.16
2022-10-14T15:43:27.213Z,101455.37
2022-10-14T15:46:18.392Z,101456.79
2022-10-14T15:48:55.423Z,101457.39
2022-10-14T15:51:28.509Z,101455.55
2022-10-14T15:53:57.683Z,101451.38
2022-10-14T15:56:26.385Z,101448.23
2022-10-14T15:58:54.853Z,101443.88
2022-10-14T16:01:23.984Z,101450.22
2022-10-14T16:03:55.630Z,101449.88
2022-10-14T16:06:24.685Z,101457.20
2022-10-14T16:08:53.241Z,101452.23
2022-10-14T16:11:29.295Z,101447.23
2022-10-14T16:13:57.868Z,101450.50
2022-10-14T16:16:33.081Z,101449.26
2022-10-14T16:19:05.012Z,101446.98
2022-10-14T16:21:33.683Z,101449.11
2022-10-14T16:24:04.383Z,101448.89
2022-10-14T16:26:32.892Z,101451.69
2022-10-14T16:29:03.623Z,101453.81
2022-10-14T16:31:32.131Z,101432.41
2022-10-14T16:34:01.993Z,101460.94
2022-10-14T16:36:30.227Z,101458.02
2022-10-14T16:39:00.628Z,101461.68
2022-10-14T16:41:31.132Z,101458.80
2022-10-14T16:43:59.319Z,101458.78
2022-10-14T16:46:47.791Z,101459.66
2022-10-14T16:49:16.039Z,101454.67
2022-10-14T16:51:45.148Z,101454.65
2022-10-14T16:54:13.245Z,101455.40
2022-10-14T16:56:53.854Z,101464.23
2022-10-14T16:59:24.614Z,101457.77
2022-10-14T17:01:53.375Z,101456.56
2022-10-14T17:04:22.480Z,101459.02
2022-10-14T17:06:59.078Z,101457.41
2022-10-14T17:09:28.091Z,101462.55
2022-10-14T17:11:59.926Z,101459.48
2022-10-14T17:14:31.395Z,101444.78
2022-10-14T17:17:01.054Z,101457.19
2022-10-14T17:19:29.552Z,101453.33
2022-10-14T17:21:57.798Z,101455.22
2022-10-14T17:24:26.616Z,101454.09
2022-10-14T17:26:55.045Z,101453.15
2022-10-14T17:29:23.359Z,101451.27
2022-10-14T17:31:52.897Z,101452.91
2022-10-14T17:34:21.204Z,101451.39
2022-10-14T17:36:50.316Z,101450.23
2022-10-14T17:39:25.851Z,101449.60
2022-10-14T17:41:58.077Z,101447.27
2022-10-14T17:44:26.831Z,101443.78
2022-10-14T17:46:55.368Z,101445.38
2022-10-14T17:49:23.755Z,101443.31
2022-10-14T17:51:52.012Z,101443.35
2022-10-14T17:54:20.517Z,101443.22
2022-10-14T17:56:48.688Z,101440.17
2022-10-14T17:59:16.923Z,101440.50
2022-10-14T18:04:33.746Z,101425.59
2022-10-14T18:07:01.971Z,101421.23
2022-10-14T18:09:30.228Z,101423.08
2022-10-14T18:12:13.737Z,101420.94
2022-10-14T18:14:42.975Z,101421.19
2022-10-14T18:17:12.875Z,101419.84
2022-10-14T18:19:42.068Z,101420.36
2022-10-14T18:22:11.396Z,101421.55
2022-10-14T18:24:39.874Z,101425.57
2022-10-14T18:27:08.234Z,101425.73
2022-10-14T18:29:36.452Z,101428.00
2022-10-14T18:32:05.891Z,101433.16
2022-10-14T18:34:34.206Z,101431.85
2022-10-14T18:37:02.534Z,101430.90
2022-10-14T18:39:30.839Z,101436.59
2022-10-14T18:41:59.175Z,101437.88
2022-10-14T18:44:27.413Z,101439.20
2022-10-14T18:46:56.948Z,101440.52
2022-10-14T18:49:25.304Z,101436.46
2022-10-14T18:51:55.351Z,101435.09
2022-10-14T18:54:26.764Z,101444.72
2022-10-14T18:56:55.892Z,101447.36
2022-10-14T18:59:24.345Z,101450.39
2022-10-14T19:01:53.548Z,101444.45
2022-10-14T19:04:26.950Z,101436.63
2022-10-14T19:06:55.219Z,101438.48
2022-10-14T19:09:29.083Z,101445.83
2022-10-14T19:11:59.242Z,101444.64
2022-10-14T19:14:28.947Z,101446.61
2022-10-14T19:16:57.450Z,101447.69
2022-10-14T19:19:25.802Z,101439.59
2022-10-14T19:21:56.403Z,101437.53
2022-10-14T19:24:24.795Z,101432.39
2022-10-14T19:26:54.323Z,101430.12
2022-10-14T19:29:30.359Z,101428.44
2022-10-14T19:31:59.303Z,101428.11
2022-10-14T19:34:28.352Z,101428.11
2022-10-14T19:36:56.676Z,101425.34
2022-10-14T19:39:24.874Z,101421.70
2022-10-14T19:41:53.092Z,101417.27
2022-10-14T19:44:21.370Z,101414.61
2022-10-14T19:46:49.860Z,101407.00
2022-10-14T19:49:18.196Z,101410.58
2022-10-14T19:51:46.680Z,101405.61
2022-10-14T19:54:15.122Z,101404.11
2022-10-14T19:56:43.500Z,101405.91
2022-10-14T19:59:14.629Z,101398.96
2022-10-14T20:01:43.022Z,101400.80
2022-10-14T20:04:11.815Z,101393.70
2022-10-14T20:06:40.895Z,101392.40
2022-10-14T20:09:12.261Z,101394.43
2022-10-14T20:11:43.094Z,101381.90
2022-10-14T20:14:11.467Z,101395.34
2022-10-14T20:16:40.063Z,101393.88
2022-10-14T20:19:09.052Z,101395.20
2022-10-14T20:21:37.537Z,101391.67
2022-10-14T20:24:06.937Z,101391.54
2022-10-14T20:26:37.570Z,101386.26
2022-10-14T20:29:06.043Z,101384.72
2022-10-14T20:31:34.993Z,101383.98
2022-10-14T20:34:07.275Z,101384.48
2022-10-14T20:36:40.139Z,101383.96
2022-10-14T20:39:08.516Z,101382.85
2022-10-14T20:41:36.842Z,101367.05
2022-10-14T20:44:05.651Z,101382.61
2022-10-14T20:46:33.969Z,101382.66
2022-10-14T20:49:02.246Z,101383.77
2022-10-14T20:51:30.709Z,101379.34
2022-10-14T20:54:03.754Z,101364.63
2022-10-14T20:56:35.173Z,101376.91
2022-10-14T20:59:05.857Z,101380.81
2022-10-14T21:01:36.346Z,101382.45
2022-10-14T21:04:07.380Z,101349.92
2022-10-14T21:06:36.667Z,101378.30
2022-10-14T21:09:05.398Z,101376.17
2022-10-14T21:11:33.782Z,101375.60
2022-10-14T21:14:02.168Z,101364.09
2022-10-14T21:16:32.707Z,101375.36
2022-10-14T21:19:04.126Z,101365.80
2022-10-14T21:21:41.339Z,101376.40
2022-10-14T21:24:13.912Z,101375.61
2022-10-14T21:26:42.260Z,101375.25
2022-10-14T21:29:10.716Z,101373.66
2022-10-14T21:31:39.121Z,101369.60
2022-10-14T21:34:07.338Z,101369.19
2022-10-14T21:36:35.678Z,101369.14
2022-10-14T21:39:13.077Z,101366.95
2022-10-14T21:41:42.958Z,101362.12
2022-10-14T21:44:15.447Z,101365.76
2022-10-14T21:46:43.903Z,101346.05
2022-10-14T21:49:12.561Z,101365.06
2022-10-14T21:51:40.862Z,101366.04
2022-10-14T21:54:12.357Z,101367.02
2022-10-14T21:56:40.709Z,101366.98
2022-10-14T21:59:09.994Z,101368.55
2022-10-14T22:01:38.382Z,101367.61
2022-10-14T22:04:06.742Z,101366.25
2022-10-14T22:06:36.248Z,101362.69
2022-10-14T22:09:07.045Z,101364.08
2022-10-14T22:11:41.108Z,101359.13
2022-10-14T22:14:17.470Z,101360.48
2022-10-14T22:16:47.312Z,101359.29
2022-10-14T22:19:15.968Z,101338.84
2022-10-14T22:21:46.461Z,101354.34
2022-10-14T22:24:14.783Z,101351.35
2022-10-14T22:26:43.150Z,101355.11
2022-10-14T22:29:16.353Z,101351.64
2022-10-14T22:31:45.913Z,101348.61
2022-10-14T22:34:16.998Z,101345.61
2022-10-14T22:36:45.512Z,101348.02
2022-10-14T22:39:16.308Z,101347.26
2022-10-14T22:41:45.188Z,101345.37
2022-10-14T22:44:13.468Z,101345.41
2022-10-14T22:46:41.949Z,101341.67
2022-10-14T22:49:10.496Z,101340.52
2022-10-14T22:51:40.853Z,101338.05
2022-10-14T22:54:10.076Z,101321.05
2022-10-14T22:56:38.666Z,101330.08
2022-10-14T22:59:09.891Z,101328.64
2022-10-14T23:01:40.048Z,101329.95
2022-10-14T23:04:09.403Z,101330.59
2022-10-14T23:06:38.807Z,101333.02
2022-10-14T23:09:06.999Z,101334.37
2022-10-14T23:11:35.208Z,101334.70
2022-10-14T23:14:06.314Z,101341.73
2022-10-14T23:16:35.843Z,101339.97
2022-10-14T23:19:04.304Z,101339.31
2022-10-14T23:21:35.387Z,101336.86
2022-10-14T23:24:07.299Z,101333.86
2022-10-14T23:26:36.597Z,101339.08
2022-10-14T23:29:10.080Z,101338.83
2022-10-14T23:31:40.077Z,101340.72
2022-10-14T23:34:12.203Z,101337.64
2022-10-14T23:36:40.951Z,101335.80
2022-10-14T23:39:10.101Z,101338.67
2022-10-14T23:41:38.653Z,101339.12
2022-10-14T23:44:06.960Z,101339.98
2022-10-14T23:46:35.179Z,101336.09
2022-10-14T23:49:07.721Z,101330.00
2022-10-14T23:51:49.861Z,101329.75
2022-10-14T23:54:18.063Z,101328.15
2022-10-14T23:56:46.232Z,101330.73
2022-10-14T23:59:14.615Z,101325.98
